sensor_id;sensor_type;location;lat;lon;timestamp;pressure;altitude;pressure_sealevel;temperature;humidity
15193;BME280;7697;51.630;7.484;2023-03-05T00:03:24;101359.75;;;5.87;84.21
15193;BME280;7697;51.630;7.484;2023-03-05T00:08:26;101354.63;;;5.85;84.18
15193;BME280;7697;51.630;7.484;2023-03-05T00:13:29;101351.84;;;5.87;84.39
15193;BME280;7697;51.630;7.484;2023-03-05T00:18:32;101351.63;;;5.80;84.80
15193;BME280;7697;51.630;7.484;2023-03-05T00:23:33;101333.59;;;5.68;84.48
15193;BME280;7697;51.630;7.484;2023-03-05T00:28:37;101330.13;;;5.67;85.46
15193;BME280;7697;51.630;7.484;2023-03-05T00:33:38;101327.34;;;5.69;85.47
15193;BME280;7697;51.630;7.484;2023-03-05T00:38:40;101321.97;;;5.70;85.17
15193;BME280;7697;51.630;7.484;2023-03-05T00:43:43;101330.69;;;5.71;85.50
15193;BME280;7697;51.630;7.484;2023-03-05T00:48:45;101318.56;;;5.60;86.46
15193;BME280;7697;51.630;7.484;2023-03-05T00:53:47;101307.84;;;5.53;86.83
15193;BME280;7697;51.630;7.484;2023-03-05T00:58:50;101308.25;;;5.49;87.42
15193;BME280;7697;51.630;7.484;2023-03-05T01:03:52;101305.28;;;5.44;88.67
15193;BME280;7697;51.630;7.484;2023-03-05T01:08:55;101296.34;;;5.37;88.66
15193;BME280;7697;51.630;7.484;2023-03-05T01:13:59;101300.31;;;5.41;88.90
15193;BME280;7697;51.630;7.484;2023-03-05T01:19:01;101286.94;;;5.34;89.69
15193;BME280;7697;51.630;7.484;2023-03-05T01:24:04;101292.28;;;5.42;89.25
15193;BME280;7697;51.630;7.484;2023-03-05T01:29:07;101275.47;;;5.35;90.04
15193;BME280;7697;51.630;7.484;2023-03-05T01:34:08;101275.63;;;5.34;90.82
15193;BME280;7697;51.630;7.484;2023-03-05T01:39:10;101270.34;;;5.34;90.84
15193;BME280;7697;51.630;7.484;2023-03-05T01:44:25;101268.69;;;5.33;91.35
15193;BME280;7697;51.630;7.484;2023-03-05T01:49:29;101247.97;;;5.29;91.95
15193;BME280;7697;51.630;7.484;2023-03-05T01:54:33;101245.97;;;5.23;92.01
15193;BME280;7697;51.630;7.484;2023-03-05T01:59:39;101233.44;;;5.17;92.17
15193;BME280;7697;51.630;7.484;2023-03-05T02:04:45;101234.97;;;5.10;92.78
15193;BME280;7697;51.630;7.484;2023-03-05T02:09:47;101236.34;;;5.14;93.46
15193;BME280;7697;51.630;7.484;2023-03-05T02:14:51;101230.41;;;5.12;93.52
15193;BME280;7697;51.630;7.484;2023-03-05T02:20:04;101230.34;;;5.22;93.07
15193;BME280;7697;51.630;7.484;2023-03-05T02:25:17;101217.28;;;5.12;93.48
15193;BME280;7697;51.630;7.484;2023-03-05T02:30:19;101219.63;;;5.15;93.66
15193;BME280;7697;51.630;7.484;2023-03-05T02:35:21;101213.41;;;5.16;93.45
15193;BME280;7697;51.630;7.484;2023-03-05T02:40:25;101198.63;;;5.15;93.87
15193;BME280;7697;51.630;7.484;2023-03-05T02:45:27;101182.09;;;5.05;93.49
15193;BME280;7697;51.630;7.484;2023-03-05T02:50:29;101187.06;;;5.08;93.79
15193;BME280;7697;51.630;7.484;2023-03-05T02:55:34;101182.78;;;5.07;93.86
15193;BME280;7697;51.630;7.484;2023-03-05T03:00:36;101193.97;;;5.09;93.93
15193;BME280;7697;51.630;7.484;2023-03-05T03:05:37;101173.53;;;5.03;94.37
15193;BME280;7697;51.630;7.484;2023-03-05T03:10:41;101169.94;;;5.04;94.41
15193;BME280;7697;51.630;7.484;2023-03-05T03:15:42;101163.72;;;5.05;94.45
15193;BME280;7697;51.630;7.484;2023-03-05T03:20:44;101162.47;;;5.09;93.91
15193;BME280;7697;51.630;7.484;2023-03-05T03:25:47;101160.28;;;5.05;94.53
15193;BME280;7697;51.630;7.484;2023-03-05T03:30:49;101145.13;;;4.99;94.68
15193;BME280;7697;51.630;7.484;2023-03-05T03:35:51;101129.16;;;4.92;94.45
15193;BME280;7697;51.630;7.484;2023-03-05T03:40:54;101144.31;;;4.98;94.86
15193;BME280;7697;51.630;7.484;2023-03-05T03:45:56;101134.25;;;4.94;94.65
15193;BME280;7697;51.630;7.484;2023-03-05T03:50:57;101119.78;;;4.89;95.39
15193;BME280;7697;51.630;7.484;2023-03-05T03:56:01;101116.06;;;4.92;95.19
15193;BME280;7697;51.630;7.484;2023-03-05T04:01:03;101106.94;;;4.86;96.15
15193;BME280;7697;51.630;7.484;2023-03-05T04:06:06;101112.06;;;4.88;96.49
15193;BME280;7697;51.630;7.484;2023-03-05T04:11:09;101091.81;;;4.80;96.78
15193;BME280;7697;51.630;7.484;2023-03-05T04:16:10;101090.03;;;4.81;96.70
15193;BME280;7697;51.630;7.484;2023-03-05T04:21:12;101087.75;;;4.86;96.64
15193;BME280;7697;51.630;7.484;2023-03-05T04:26:15;101081.19;;;4.82;97.04
15193;BME280;7697;51.630;7.484;2023-03-05T04:31:17;101087.25;;;4.82;96.36
15193;BME280;7697;51.630;7.484;2023-03-05T04:36:19;101074.34;;;4.71;97.39
15193;BME280;7697;51.630;7.484;2023-03-05T04:41:22;101076.66;;;4.74;97.38
15193;BME280;7697;51.630;7.484;2023-03-05T04:46:24;101083.72;;;4.74;97.11
15193;BME280;7697;51.630;7.484;2023-03-05T04:51:26;101082.59;;;4.76;97.37
15193;BME280;7697;51.630;7.484;2023-03-05T04:56:29;101090.16;;;4.79;97.63
15193;BME280;7697;51.630;7.484;2023-03-05T05:01:31;101082.00;;;4.82;98.67
15193;BME280;7697;51.630;7.484;2023-03-05T05:06:34;101058.81;;;4.78;97.74
15193;BME280;7697;51.630;7.484;2023-03-05T05:11:38;101062.97;;;4.80;97.74
15193;BME280;7697;51.630;7.484;2023-03-05T05:16:39;101057.63;;;4.72;98.66
15193;BME280;7697;51.630;7.484;2023-03-05T05:21:41;101055.09;;;4.63;98.67
15193;BME280;7697;51.630;7.484;2023-03-05T05:26:44;101043.63;;;4.64;98.38
15193;BME280;7697;51.630;7.484;2023-03-05T05:31:46;101045.94;;;4.67;98.58
15193;BME280;7697;51.630;7.484;2023-03-05T05:36:48;101041.97;;;4.63;98.53
15193;BME280;7697;51.630;7.484;2023-03-05T05:41:52;101037.38;;;4.47;98.92
15193;BME280;7697;51.630;7.484;2023-03-05T05:46:54;101041.34;;;4.51;98.75
15193;BME280;7697;51.630;7.484;2023-03-05T05:52:01;101037.00;;;4.60;98.85
15193;BME280;7697;51.630;7.484;2023-03-05T05:57:05;101043.63;;;4.64;98.61
15193;BME280;7697;51.630;7.484;2023-03-05T06:02:06;101042.41;;;4.58;98.55
15193;BME280;7697;51.630;7.484;2023-03-05T06:07:08;101031.00;;;4.49;98.45
15193;BME280;7697;51.630;7.484;2023-03-05T06:12:11;101025.06;;;4.47;99.45
15193;BME280;7697;51.630;7.484;2023-03-05T06:17:13;101023.13;;;4.49;99.30
15193;BME280;7697;51.630;7.484;2023-03-05T06:22:14;101032.06;;;4.57;99.09
15193;BME280;7697;51.630;7.484;2023-03-05T06:27:18;101035.06;;;4.62;98.92
15193;BME280;7697;51.630;7.484;2023-03-05T06:32:22;101022.84;;;4.52;99.05
15193;BME280;7697;51.630;7.484;2023-03-05T06:37:24;101018.22;;;4.46;99.90
15193;BME280;7697;51.630;7.484;2023-03-05T06:42:27;101032.72;;;4.59;99.56
15193;BME280;7697;51.630;7.484;2023-03-05T06:47:29;101036.50;;;4.56;99.99
15193;BME280;7697;51.630;7.484;2023-03-05T06:52:31;101022.31;;;4.49;99.83
15193;BME280;7697;51.630;7.484;2023-03-05T06:57:35;101017.22;;;4.47;100.00
15193;BME280;7697;51.630;7.484;2023-03-05T07:02:37;101025.84;;;4.58;100.00
15193;BME280;7697;51.630;7.484;2023-03-05T07:07:39;101018.16;;;4.56;100.00
15193;BME280;7697;51.630;7.484;2023-03-05T07:12:42;101021.13;;;4.61;100.00
15193;BME280;7697;51.630;7.484;2023-03-05T07:17:44;101017.75;;;4.69;100.00
15193;BME280;7697;51.630;7.484;2023-03-05T07:22:45;101004.56;;;4.61;100.00
15193;BME280;7697;51.630;7.484;2023-03-05T07:27:49;101003.13;;;4.66;100.00
15193;BME280;7697;51.630;7.484;2023-03-05T07:32:50;101005.59;;;4.68;100.00
15193;BME280;7697;51.630;7.484;2023-03-05T07:37:52;101005.19;;;4.72;100.00
15193;BME280;7697;51.630;7.484;2023-03-05T07:42:56;100991.09;;;4.73;100.00
15193;BME280;7697;51.630;7.484;2023-03-05T07:47:58;100997.03;;;4.83;100.00
15193;BME280;7697;51.630;7.484;2023-03-05T07:53:00;100983.50;;;4.88;100.00
15193;BME280;7697;51.630;7.484;2023-03-05T07:58:03;100986.84;;;4.98;100.00
15193;BME280;7697;51.630;7.484;2023-03-05T08:03:05;100961.59;;;4.97;100.00
15193;BME280;7697;51.630;7.484;2023-03-05T08:08:08;100975.72;;;5.04;100.00
15193;BME280;7697;51.630;7.484;2023-03-05T08:13:11;100967.56;;;5.07;100.00
15193;BME280;7697;51.630;7.484;2023-03-05T08:18:13;100970.25;;;5.15;100.00
15193;BME280;7697;51.630;7.484;2023-03-05T08:23:18;100964.84;;;5.17;100.00
15193;BME280;7697;51.630;7.484;2023-03-05T08:28:21;100960.41;;;5.17;100.00
15193;BME280;7697;51.630;7.484;2023-03-05T08:33:23;100954.88;;;5.28;100.00
15193;BME280;7697;51.630;7.484;2023-03-05T08:38:25;100953.44;;;5.34;100.00
15193;BME280;7697;51.630;7.484;2023-03-05T08:43:28;100947.06;;;5.37;100.00
15193;BME280;7697;51.630;7.484;2023-03-05T08:48:31;100948.03;;;5.36;100.00
15193;BME280;7697;51.630;7.484;2023-03-05T08:53:33;100945.19;;;5.29;100.00
15193;BME280;7697;51.630;7.484;2023-03-05T08:58:37;100949.63;;;5.28;100.00
15193;BME280;7697;51.630;7.484;2023-03-05T09:03:39;100948.25;;;5.42;100.00
15193;BME280;7697;51.630;7.484;2023-03-05T09:08:41;100934.00;;;5.53;100.00
15193;BME280;7697;51.630;7.484;2023-03-05T09:13:44;100941.13;;;5.69;100.00
15193;BME280;7697;51.630;7.484;2023-03-05T09:18:46;100924.53;;;5.68;100.00
15193;BME280;7697;51.630;7.484;2023-03-05T09:23:47;100929.97;;;5.75;99.80
15193;BME280;7697;51.630;7.484;2023-03-05T09:28:50;100932.47;;;5.84;98.87
15193;BME280;7697;51.630;7.484;2023-03-05T09:33:52;100940.78;;;6.06;99.04
15193;BME280;7697;51.630;7.484;2023-03-05T09:38:54;100920.25;;;6.09;97.81
15193;BME280;7697;51.630;7.484;2023-03-05T09:44:05;100923.75;;;6.34;96.83
15193;BME280;7697;51.630;7.484;2023-03-05T09:49:16;100909.94;;;6.40;97.38
15193;BME280;7697;51.630;7.484;2023-03-05T09:54:22;100914.53;;;6.38;96.44
15193;BME280;7697;51.630;7.484;2023-03-05T09:59:30;100899.41;;;6.32;95.92
15193;BME280;7697;51.630;7.484;2023-03-05T10:04:41;100904.00;;;6.22;95.73
15193;BME280;7697;51.630;7.484;2023-03-05T10:09:48;100905.81;;;6.21;96.15
15193;BME280;7697;51.630;7.484;2023-03-05T10:14:53;100908.78;;;6.34;95.40
15193;BME280;7697;51.630;7.484;2023-03-05T10:20:13;100900.41;;;6.31;96.34
15193;BME280;7697;51.630;7.484;2023-03-05T10:25:19;100878.84;;;6.35;95.65
15193;BME280;7697;51.630;7.484;2023-03-05T10:30:41;100874.75;;;6.49;94.01
15193;BME280;7697;51.630;7.484;2023-03-05T10:36:04;100868.81;;;6.55;93.22
15193;BME280;7697;51.630;7.484;2023-03-05T10:41:16;100864.38;;;6.56;92.74
15193;BME280;7697;51.630;7.484;2023-03-05T10:46:29;100873.75;;;6.66;93.24
15193;BME280;7697;51.630;7.484;2023-03-05T10:51:35;100862.22;;;6.84;92.51
15193;BME280;7697;51.630;7.484;2023-03-05T10:56:39;100851.69;;;6.84;92.33
15193;BME280;7697;51.630;7.484;2023-03-05T11:02:00;100849.88;;;6.84;91.04
15193;BME280;7697;51.630;7.484;2023-03-05T11:07:12;100842.03;;;7.23;90.89
15193;BME280;7697;51.630;7.484;2023-03-05T11:12:30;100833.25;;;7.62;90.18
15193;BME280;7697;51.630;7.484;2023-03-05T11:17:36;100837.53;;;7.63;86.91
15193;BME280;7697;51.630;7.484;2023-03-05T11:22:38;100824.41;;;7.54;86.82
15193;BME280;7697;51.630;7.484;2023-03-05T11:27:45;100819.72;;;7.42;87.34
15193;BME280;7697;51.630;7.484;2023-03-05T11:33:06;100826.06;;;7.56;85.90
15193;BME280;7697;51.630;7.484;2023-03-05T11:38:15;100823.16;;;7.42;85.93
15193;BME280;7697;51.630;7.484;2023-03-05T11:43:19;100816.75;;;7.37;86.75
15193;BME280;7697;51.630;7.484;2023-03-05T11:48:25;100800.56;;;7.71;85.69
15193;BME280;7697;51.630;7.484;2023-03-05T11:53:30;100785.94;;;8.51;84.50
15193;BME280;7697;51.630;7.484;2023-03-05T11:58:39;100780.19;;;8.77;79.90
15193;BME280;7697;51.630;7.484;2023-03-05T12:03:43;100773.31;;;8.76;79.81
15193;BME280;7697;51.630;7.484;2023-03-05T12:08:48;100768.25;;;9.11;79.02
15193;BME280;7697;51.630;7.484;2023-03-05T12:13:51;100759.47;;;9.25;79.29
15193;BME280;7697;51.630;7.484;2023-03-05T12:19:06;100753.19;;;9.26;77.51
15193;BME280;7697;51.630;7.484;2023-03-05T12:24:35;100751.19;;;9.13;77.99
15193;BME280;7697;51.630;7.484;2023-03-05T12:29:40;100730.13;;;8.84;75.64
15193;BME280;7697;51.630;7.484;2023-03-05T12:34:55;100722.22;;;8.40;76.72
15193;BME280;7697;51.630;7.484;2023-03-05T12:39:58;100720.94;;;8.36;77.46
15193;BME280;7697;51.630;7.484;2023-03-05T12:45:33;100719.22;;;8.43;76.77
15193;BME280;7697;51.630;7.484;2023-03-05T12:50:50;100714.03;;;8.35;75.13
15193;BME280;7697;51.630;7.484;2023-03-05T12:55:58;100704.19;;;8.43;72.13
15193;BME280;7697;51.630;7.484;2023-03-05T13:01:04;100698.44;;;8.69;71.92
15193;BME280;7697;51.630;7.484;2023-03-05T13:06:23;100690.81;;;9.10;74.58
15193;BME280;7697;51.630;7.484;2023-03-05T13:11:26;100679.88;;;9.13;73.43
15193;BME280;7697;51.630;7.484;2023-03-05T13:16:36;100665.91;;;9.40;73.83
15193;BME280;7697;51.630;7.484;2023-03-05T13:21:40;100669.75;;;9.59;74.45
15193;BME280;7697;51.630;7.484;2023-03-05T13:26:41;100667.69;;;9.33;72.44
15193;BME280;7697;51.630;7.484;2023-03-05T13:31:45;100642.91;;;9.34;74.79
15193;BME280;7697;51.630;7.484;2023-03-05T13:36:55;100631.19;;;9.44;74.40
15193;BME280;7697;51.630;7.484;2023-03-05T13:42:00;100628.69;;;9.35;72.94
15193;BME280;7697;51.630;7.484;2023-03-05T13:47:13;100620.25;;;9.25;72.43
15193;BME280;7697;51.630;7.484;2023-03-05T13:52:25;100621.66;;;9.21;71.98
15193;BME280;7697;51.630;7.484;2023-03-05T13:57:33;100602.56;;;9.26;70.34
15193;BME280;7697;51.630;7.484;2023-03-05T14:02:41;100599.41;;;9.16;67.36
15193;BME280;7697;51.630;7.484;2023-03-05T14:07:47;100593.78;;;9.19;68.83
15193;BME280;7697;51.630;7.484;2023-03-05T14:12:50;100593.25;;;9.09;68.88
15193;BME280;7697;51.630;7.484;2023-03-05T14:17:52;100578.63;;;8.85;68.54
15193;BME280;7697;51.630;7.484;2023-03-05T14:23:25;100586.28;;;9.01;69.73
15193;BME280;7697;51.630;7.484;2023-03-05T14:28:32;100570.56;;;8.93;68.93
15193;BME280;7697;51.630;7.484;2023-03-05T14:33:33;100560.75;;;8.87;68.85
15193;BME280;7697;51.630;7.484;2023-03-05T14:38:40;100559.31;;;8.84;68.68
15193;BME280;7697;51.630;7.484;2023-03-05T14:43:43;100554.22;;;8.83;69.52
15193;BME280;7697;51.630;7.484;2023-03-05T14:48:45;100541.38;;;8.80;70.13
15193;BME280;7697;51.630;7.484;2023-03-05T14:53:48;100535.28;;;8.79;68.29
15193;BME280;7697;51.630;7.484;2023-03-05T14:58:51;100523.63;;;8.52;69.51
15193;BME280;7697;51.630;7.484;2023-03-05T15:03:53;100520.00;;;8.53;70.45
15193;BME280;7697;51.630;7.484;2023-03-05T15:08:57;100511.75;;;8.42;69.61
15193;BME280;7697;51.630;7.484;2023-03-05T15:13:58;100507.59;;;8.33;71.07
15193;BME280;7697;51.630;7.484;2023-03-05T15:19:00;100507.22;;;8.36;70.93
15193;BME280;7697;51.630;7.484;2023-03-05T15:24:05;100499.13;;;8.22;71.19
15193;BME280;7697;51.630;7.484;2023-03-05T15:29:07;100494.47;;;8.24;71.98
15193;BME280;7697;51.630;7.484;2023-03-05T15:34:08;100491.66;;;8.26;72.69
15193;BME280;7697;51.630;7.484;2023-03-05T15:39:12;100472.31;;;8.19;72.45
15193;BME280;7697;51.630;7.484;2023-03-05T15:44:13;100470.03;;;8.16;72.26
15193;BME280;7697;51.630;7.484;2023-03-05T15:49:15;100470.66;;;8.18;72.87
15193;BME280;7697;51.630;7.484;2023-03-05T15:54:18;100460.69;;;8.13;73.05
15193;BME280;7697;51.630;7.484;2023-03-05T15:59:20;100459.47;;;8.16;73.43
15193;BME280;7697;51.630;7.484;2023-03-05T16:04:22;100459.06;;;8.12;73.34
15193;BME280;7697;51.630;7.484;2023-03-05T16:09:25;100451.69;;;8.08;73.66
15193;BME280;7697;51.630;7.484;2023-03-05T16:14:31;100431.88;;;7.97;73.74
15193;BME280;7697;51.630;7.484;2023-03-05T16:19:39;100427.63;;;7.96;74.08
15193;BME280;7697;51.630;7.484;2023-03-05T16:24:44;100430.00;;;7.91;73.09
15193;BME280;7697;51.630;7.484;2023-03-05T16:29:46;100439.19;;;7.80;73.31
15193;BME280;7697;51.630;7.484;2023-03-05T16:34:48;100431.97;;;7.68;74.34
15193;BME280;7697;51.630;7.484;2023-03-05T16:39:51;100434.59;;;7.68;75.32
15193;BME280;7697;51.630;7.484;2023-03-05T16:44:52;100434.13;;;7.64;75.10
15193;BME280;7697;51.630;7.484;2023-03-05T16:49:54;100414.97;;;7.56;76.34
15193;BME280;7697;51.630;7.484;2023-03-05T16:54:57;100407.16;;;7.47;76.24
15193;BME280;7697;51.630;7.484;2023-03-05T16:59:59;100419.00;;;7.51;76.82
15193;BME280;7697;51.630;7.484;2023-03-05T17:05:03;100409.34;;;7.44;77.47
15193;BME280;7697;51.630;7.484;2023-03-05T17:10:08;100409.53;;;7.42;76.75
15193;BME280;7697;51.630;7.484;2023-03-05T17:15:11;100409.91;;;7.39;77.01
15193;BME280;7697;51.630;7.484;2023-03-05T17:20:13;100400.47;;;7.30;77.70
15193;BME280;7697;51.630;7.484;2023-03-05T17:25:16;100409.91;;;7.39;77.17
15193;BME280;7697;51.630;7.484;2023-03-05T17:30:18;100391.91;;;7.28;77.62
15193;BME280;7697;51.630;7.484;2023-03-05T17:35:21;100390.09;;;7.29;77.91
15193;BME280;7697;51.630;7.484;2023-03-05T17:40:24;100396.81;;;7.31;77.56
15193;BME280;7697;51.630;7.484;2023-03-05T17:45:26;100386.56;;;7.22;78.00
15193;BME280;7697;51.630;7.484;2023-03-05T17:50:28;100398.19;;;7.27;78.05
15193;BME280;7697;51.630;7.484;2023-03-05T17:55:31;100391.00;;;7.21;77.90
15193;BME280;7697;51.630;7.484;2023-03-05T18:00:34;100386.47;;;7.15;78.47
15193;BME280;7697;51.630;7.484;2023-03-05T18:05:36;100391.19;;;7.05;78.67
15193;BME280;7697;51.630;7.484;2023-03-05T18:10:39;100396.81;;;7.02;79.32
15193;BME280;7697;51.630;7.484;2023-03-05T18:15:41;100387.44;;;6.99;80.05
15193;BME280;7697;51.630;7.484;2023-03-05T18:20:46;100382.75;;;6.95;79.69
15193;BME280;7697;51.630;7.484;2023-03-05T18:25:50;100377.31;;;6.96;79.45
15193;BME280;7697;51.630;7.484;2023-03-05T18:30:52;100377.75;;;7.00;79.55
15193;BME280;7697;51.630;7.484;2023-03-05T18:35:54;100375.84;;;6.94;80.51
15193;BME280;7697;51.630;7.484;2023-03-05T18:41:01;100378.56;;;6.86;80.63
15193;BME280;7697;51.630;7.484;2023-03-05T18:46:03;100369.38;;;6.82;80.89
15193;BME280;7697;51.630;7.484;2023-03-05T18:51:12;100359.50;;;6.84;80.66
15193;BME280;7697;51.630;7.484;2023-03-05T18:56:16;100342.78;;;6.76;80.87
15193;BME280;7697;51.630;7.484;2023-03-05T19:01:18;100357.59;;;6.77;80.85
15193;BME280;7697;51.630;7.484;2023-03-05T19:06:20;100347.75;;;6.71;81.71
15193;BME280;7697;51.630;7.484;2023-03-05T19:11:23;100342.97;;;6.75;82.37
15193;BME280;7697;51.630;7.484;2023-03-05T19:16:27;100332.34;;;6.68;82.16
15193;BME280;7697;51.630;7.484;2023-03-05T19:21:35;100327.91;;;6.69;81.89
15193;BME280;7697;51.630;7.484;2023-03-05T19:26:39;100335.44;;;6.72;81.57
15193;BME280;7697;51.630;7.484;2023-03-05T19:31:41;100325.44;;;6.67;81.96
15193;BME280;7697;51.630;7.484;2023-03-05T19:36:43;100321.19;;;6.66;83.10
15193;BME280;7697;51.630;7.484;2023-03-05T19:41:46;100307.66;;;6.55;82.86
15193;BME280;7697;51.630;7.484;2023-03-05T19:46:48;100313.56;;;6.57;82.85
15193;BME280;7697;51.630;7.484;2023-03-05T19:51:50;100314.94;;;6.53;82.60
15193;BME280;7697;51.630;7.484;2023-03-05T19:56:53;100304.34;;;6.38;83.75
15193;BME280;7697;51.630;7.484;2023-03-05T20:01:55;100295.63;;;6.23;83.62
15193;BME280;7697;51.630;7.484;2023-03-05T20:06:57;100298.53;;;6.28;84.12
15193;BME280;7697;51.630;7.484;2023-03-05T20:12:01;100281.66;;;6.22;84.55
15193;BME280;7697;51.630;7.484;2023-03-05T20:17:04;100291.63;;;6.27;84.76
15193;BME280;7697;51.630;7.484;2023-03-05T20:22:06;100301.16;;;6.28;84.44
15193;BME280;7697;51.630;7.484;2023-03-05T20:27:09;100293.34;;;6.20;85.60
15193;BME280;7697;51.630;7.484;2023-03-05T20:32:11;100273.22;;;6.12;85.52
15193;BME280;7697;51.630;7.484;2023-03-05T20:37:14;100275.19;;;6.10;86.09
15193;BME280;7697;51.630;7.484;2023-03-05T20:42:17;100268.84;;;6.05;86.60
15193;BME280;7697;51.630;7.484;2023-03-05T20:47:19;100266.28;;;5.96;86.73
15193;BME280;7697;51.630;7.484;2023-03-05T20:52:31;100263.66;;;5.96;86.71
15193;BME280;7697;51.630;7.484;2023-03-05T20:57:34;100267.75;;;5.99;87.33
15193;BME280;7697;51.630;7.484;2023-03-05T21:02:36;100261.03;;;5.96;86.67
15193;BME280;7697;51.630;7.484;2023-03-05T21:07:39;100241.22;;;5.86;87.02
15193;BME280;7697;51.630;7.484;2023-03-05T21:12:42;100236.91;;;5.93;87.21
15193;BME280;7697;51.630;7.484;2023-03-05T21:17:44;100249.53;;;5.97;87.29
15193;BME280;7697;51.630;7.484;2023-03-05T21:22:46;100235.28;;;5.92;87.72
15193;BME280;7697;51.630;7.484;2023-03-05T21:27:52;100226.25;;;5.86;87.54
15193;BME280;7697;51.630;7.484;2023-03-05T21:32:54;100215.28;;;5.83;87.65
15193;BME280;7697;51.630;7.484;2023-03-05T21:37:57;100218.72;;;5.83;87.79
15193;BME280;7697;51.630;7.484;2023-03-05T21:43:01;100214.03;;;5.79;87.76
15193;BME280;7697;51.630;7.484;2023-03-05T21:48:03;100208.13;;;5.77;88.46
15193;BME280;7697;51.630;7.484;2023-03-05T21:53:05;100186.34;;;5.68;88.13
15193;BME280;7697;51.630;7.484;2023-03-05T21:58:09;100186.00;;;5.71;88.35
15193;BME280;7697;51.630;7.484;2023-03-05T22:03:10;100174.75;;;5.62;88.35
15193;BME280;7697;51.630;7.484;2023-03-05T22:08:12;100176.84;;;5.67;88.09
15193;BME280;7697;51.630;7.484;2023-03-05T22:13:15;100154.72;;;5.61;88.43
15193;BME280;7697;51.630;7.484;2023-03-05T22:18:20;100162.88;;;5.66;89.01
15193;BME280;7697;51.630;7.484;2023-03-05T22:23:25;100150.56;;;5.67;88.70
15193;BME280;7697;51.630;7.484;2023-03-05T22:28:30;100140.25;;;5.65;89.03
15193;BME280;7697;51.630;7.484;2023-03-05T22:33:33;100125.53;;;5.56;89.58
15193;BME280;7697;51.630;7.484;2023-03-05T22:38:35;100123.47;;;5.52;89.88
15193;BME280;7697;51.630;7.484;2023-03-05T22:43:38;100123.56;;;5.58;90.14
15193;BME280;7697;51.630;7.484;2023-03-05T22:48:40;100112.16;;;5.51;90.33
15193;BME280;7697;51.630;7.484;2023-03-05T22:53:43;100118.03;;;5.53;90.33
15193;BME280;7697;51.630;7.484;2023-03-05T22:58:46;100102.91;;;5.55;90.58
15193;BME280;7697;51.630;7.484;2023-03-05T23:03:48;100109.25;;;5.61;90.83
15193;BME280;7697;51.630;7.484;2023-03-05T23:08:56;100086.31;;;5.55;90.31
15193;BME280;7697;51.630;7.484;2023-03-05T23:13:59;100089.25;;;5.60;90.89
15193;BME280;7697;51.630;7.484;2023-03-05T23:19:01;100084.16;;;5.58;90.76
15193;BME280;7697;51.630;7.484;2023-03-05T23:24:03;100089.25;;;5.60;90.83
15193;BME280;7697;51.630;7.484;2023-03-05T23:29:07;100074.66;;;5.57;91.17
15193;BME280;7697;51.630;7.484;2023-03-05T23:34:09;100074.22;;;5.54;91.12
15193;BME280;7697;51.630;7.484;2023-03-05T23:39:10;100072.75;;;5.51;91.22
15193;BME280;7697;51.630;7.484;2023-03-05T23:44:13;100064.78;;;5.45;91.71
15193;BME280;7697;51.630;7.484;2023-03-05T23:49:15;100056.25;;;5.43;91.63
15193;BME280;7697;51.630;7.484;2023-03-05T23:54:17;100057.59;;;5.39;91.74
15193;BME280;7697;51.630;7.484;2023-03-05T23:59:20;100049.56;;;5.40;92.36
